createdAt,value
2023-04-28T00:07:22.331Z,19.8
2023-04-28T00:17:25.885Z,19.8
2023-04-28T00:27:28.440Z,19.6
2023-04-28T00:37:33.059Z,19.6
2023-04-28T00:47:36.613Z,19.6
2023-04-28T00:57:39.108Z,19.8
2023-04-28T01:07:43.596Z,19.8
2023-04-28T01:17:47.235Z,19.7
2023-04-28T01:27:49.690Z,19.8
2023-04-28T01:37:54.221Z,19.7
2023-04-28T01:47:57.885Z,19.6
2023-04-28T01:58:00.326Z,19.7
2023-04-28T02:08:04.825Z,19.8
2023-04-28T02:18:08.423Z,19.8
2023-04-28T02:28:10.843Z,19.7
2023-04-28T02:38:15.490Z,19.8
2023-04-28T02:48:18.870Z,19.7
2023-04-28T02:58:21.483Z,19.8
2023-04-28T03:06:10.714Z,19.5
2023-04-28T03:16:13.911Z,19.5
2023-04-28T03:26:16.969Z,19.4
2023-04-28T03:36:20.546Z,19.4
2023-04-28T03:46:25.296Z,19.7
2023-04-28T03:56:40.427Z,20.1
2023-04-28T04:07:00.601Z,19.3
2023-04-28T04:17:21.010Z,19.1
2023-04-28T04:27:42.314Z,18.9
2023-04-28T04:38:03.905Z,18.9
2023-04-28T04:48:25.718Z,18.9
2023-04-28T04:58:47.643Z,18.9
2023-04-28T05:09:08.438Z,18.8
2023-04-28T05:19:29.531Z,18.8
2023-04-28T05:29:50.241Z,18.6
2023-04-28T05:40:12.111Z,18.8
2023-04-28T05:50:33.358Z,18.8
2023-04-28T06:00:54.939Z,19.4
2023-04-28T06:11:16.333Z,19
2023-04-28T06:21:37.517Z,19
2023-04-28T06:31:58.999Z,19.1
2023-04-28T06:42:20.141Z,19.3
2023-04-28T06:52:41.360Z,19.1
2023-04-28T07:03:02.766Z,19.2
2023-04-28T07:13:23.562Z,19.1
2023-04-28T07:23:44.648Z,19.4
2023-04-28T07:34:05.131Z,19.1
2023-04-28T07:44:21.893Z,20.1
2023-04-28T07:54:37.350Z,19.9
2023-04-28T08:04:52.551Z,20
2023-04-28T08:15:07.581Z,20.1
2023-04-28T08:25:25.102Z,19
2023-04-28T08:35:44.617Z,19.3
2023-04-28T08:46:05.095Z,19.4
2023-04-28T08:56:20.820Z,18.4
2023-04-28T09:06:17.291Z,20.3
2023-04-28T09:16:34.831Z,19.2
2023-04-28T09:26:55.550Z,18.4
2023-04-28T09:37:12.858Z,18.6
2023-04-28T09:47:32.528Z,19.4
2023-04-28T09:57:50.136Z,20.3
2023-04-28T10:08:06.396Z,19.2
2023-04-28T10:18:27.715Z,19.7
2023-04-28T10:28:48.810Z,21.3
2023-04-28T10:39:10.028Z,19.5
2023-04-28T10:49:30.005Z,19.6
2023-04-28T10:59:50.498Z,19.4
2023-04-28T11:10:08.716Z,19.3
2023-04-28T11:20:25.144Z,20.4
2023-04-28T11:30:38.597Z,20.4
2023-04-28T11:40:49.057Z,20.2
2023-04-28T11:50:56.866Z,20.2
2023-04-28T12:01:03.147Z,20.6
2023-04-28T12:11:06.998Z,20.2
2023-04-28T12:21:11.033Z,20.3
2023-04-28T12:31:14.862Z,20.3
2023-04-28T12:41:19.080Z,20.2
2023-04-28T12:51:23.801Z,20.1
2023-04-28T13:01:28.294Z,20.3
2023-04-28T13:11:32.047Z,20.3
2023-04-28T13:21:36.214Z,20.3
2023-04-28T13:31:37.092Z,20.3
2023-04-28T13:41:39.449Z,20.3
2023-04-28T13:51:41.300Z,20.6
2023-04-28T14:01:46.173Z,20.1
2023-04-28T14:11:48.418Z,20.4
2023-04-28T14:21:50.324Z,20.4
2023-04-28T14:31:53.040Z,20.1
2023-04-28T14:41:57.852Z,20.2
2023-04-28T14:51:55.493Z,20.4
2023-04-28T15:06:08.873Z,20.1
2023-04-28T15:16:11.661Z,20
2023-04-28T15:26:14.242Z,20.6
2023-04-28T15:36:16.869Z,20.3
2023-04-28T15:46:18.623Z,20.3
2023-04-28T15:56:19.781Z,20.3
2023-04-28T16:06:23.076Z,20.3
2023-04-28T16:16:24.122Z,20.4
2023-04-28T16:26:24.018Z,20.4
2023-04-28T16:36:24.401Z,20.3
2023-04-28T16:46:27.181Z,20.5
2023-04-28T16:56:29.921Z,20.3
2023-04-28T17:06:30.820Z,20.3
2023-04-28T17:16:30.617Z,20.3
2023-04-28T17:26:30.211Z,20.3
2023-04-28T17:36:30.258Z,20.3
2023-04-28T17:46:32.180Z,19.9
2023-04-28T17:56:32.038Z,20.3
2023-04-28T18:06:31.941Z,20.3
2023-04-28T18:16:31.780Z,20.3
2023-04-28T18:26:32.221Z,20.2
2023-04-28T18:36:32.356Z,20.3
2023-04-28T18:46:32.285Z,20.3
2023-04-28T18:56:32.364Z,20.3
2023-04-28T19:06:31.848Z,20.3
2023-04-28T19:16:32.077Z,20.1
2023-04-28T19:26:32.330Z,20
2023-04-28T19:36:33.939Z,20.2
2023-04-28T19:46:34.427Z,20.1
2023-04-28T19:56:35.592Z,20.2
2023-04-28T20:06:35.380Z,20.2
2023-04-28T20:16:35.419Z,20.1
2023-04-28T20:26:35.245Z,20.1
2023-04-28T20:36:35.159Z,20.3
2023-04-28T20:46:34.444Z,20.1
2023-04-28T20:56:33.952Z,20.1
2023-04-28T21:06:09.391Z,20.1
2023-04-28T21:16:10.203Z,20.1
2023-04-28T21:26:10.639Z,19.9
2023-04-28T21:36:10.630Z,20
2023-04-28T21:46:11.572Z,20.1
2023-04-28T21:56:12.316Z,20.3
2023-04-28T22:06:12.732Z,20.1
2023-04-28T22:16:13.840Z,20.1
2023-04-28T22:26:14.538Z,20.2
2023-04-28T22:36:16.455Z,20.1
2023-04-28T22:46:17.611Z,20.1
2023-04-28T22:56:19.145Z,20
2023-04-28T23:06:18.979Z,20.3
2023-04-28T23:16:19.031Z,19.9
2023-04-28T23:26:18.553Z,20.3
2023-04-28T23:36:18.516Z,19.9
2023-04-28T23:46:18.504Z,20.1
2023-04-28T23:56:18.936Z,19.9
